createdAt,value
2019-02-28T00:01:25.975Z,47.85
2019-02-28T00:03:58.016Z,48.57
2019-02-28T00:06:26.473Z,47.23
2019-02-28T00:08:55.861Z,51.92
2019-02-28T00:11:25.242Z,49.98
2019-02-28T00:13:55.981Z,48.50
2019-02-28T00:16:25.724Z,53.30
2019-02-28T00:18:55.079Z,50.85
2019-02-28T00:21:24.464Z,50.03
2019-02-28T00:23:57.268Z,54.33
2019-02-28T00:26:25.041Z,50.33
2019-02-28T00:28:56.986Z,52.00
2019-02-28T00:31:25.491Z,51.20
2019-02-28T00:33:54.992Z,52.23
2019-02-28T00:36:24.350Z,51.42
2019-02-28T00:38:53.817Z,52.80
2019-02-28T00:41:23.207Z,51.63
2019-02-28T00:43:52.602Z,51.18
2019-02-28T00:46:29.384Z,52.65
2019-02-28T00:48:58.744Z,51.70
2019-02-28T00:51:29.765Z,50.80
2019-02-28T00:53:59.238Z,50.73
2019-02-28T00:56:28.601Z,49.75
2019-02-28T00:59:00.537Z,49.85
2019-02-28T01:01:29.023Z,49.93
2019-02-28T01:03:59.095Z,48.35
2019-02-28T01:06:28.560Z,50.17
2019-02-28T01:08:59.121Z,49.05
2019-02-28T01:11:28.463Z,47.90
2019-02-28T01:13:58.084Z,49.88
2019-02-28T01:16:28.954Z,50.90
2019-02-28T01:18:58.341Z,47.33
2019-02-28T01:21:27.757Z,46.95
2019-02-28T01:24:00.523Z,47.15
2019-02-28T01:26:28.240Z,46.77
2019-02-28T01:29:01.374Z,49.05
2019-02-28T01:31:29.828Z,48.35
2019-02-28T01:33:59.380Z,46.90
2019-02-28T01:36:28.844Z,45.15
2019-02-28T01:38:58.863Z,46.40
2019-02-28T01:41:28.300Z,47.20
2019-02-28T01:43:57.669Z,46.15
2019-02-28T01:46:27.095Z,47.98
2019-02-28T01:48:56.461Z,48.83
2019-02-28T01:51:25.842Z,50.05
2019-02-28T01:53:55.222Z,50.35
2019-02-28T01:56:24.626Z,48.50
2019-02-28T01:58:54.045Z,48.85
2019-02-28T02:01:23.486Z,49.33
2019-02-28T02:03:52.853Z,47.45
2019-02-28T02:06:22.585Z,48.20
2019-02-28T02:08:53.374Z,50.17
2019-02-28T02:11:23.172Z,47.98
2019-02-28T02:13:52.545Z,50.63
2019-02-28T02:16:26.792Z,52.65
2019-02-28T02:18:53.036Z,52.03
2019-02-28T02:21:22.411Z,51.75
2019-02-28T02:23:52.973Z,52.67
2019-02-28T02:26:22.884Z,52.70
2019-02-28T02:28:53.778Z,52.20
2019-02-28T02:31:27.575Z,54.05
2019-02-28T02:33:54.214Z,53.13
2019-02-28T02:36:23.593Z,56.75
2019-02-28T02:38:53.015Z,57.80
2019-02-28T02:41:22.396Z,55.63
2019-02-28T02:43:54.930Z,57.95
2019-02-28T02:46:22.958Z,56.40
2019-02-28T02:48:52.350Z,58.15
2019-02-28T02:51:21.706Z,56.30
2019-02-28T02:53:51.054Z,57.93
2019-02-28T02:56:20.433Z,59.83
2019-02-28T02:58:49.866Z,59.15
2019-02-28T03:01:23.175Z,57.78
2019-02-28T03:03:50.535Z,56.20
2019-02-28T03:06:19.916Z,57.93
2019-02-28T03:08:49.294Z,62.33
2019-02-28T03:11:18.667Z,58.47
2019-02-28T03:13:48.109Z,58.30
2019-02-28T03:16:17.465Z,60.92
2019-02-28T03:18:46.822Z,55.00
2019-02-28T03:21:16.587Z,61.30
2019-02-28T03:23:46.056Z,59.10
2019-02-28T03:26:15.461Z,59.20
2019-02-28T03:28:44.812Z,61.37
2019-02-28T03:31:15.689Z,59.33
2019-02-28T03:33:45.357Z,59.90
2019-02-28T03:36:15.613Z,58.23
2019-02-28T03:38:49.595Z,55.73
2019-02-28T03:41:18.168Z,57.20
2019-02-28T03:43:47.782Z,59.05
2019-02-28T03:46:17.260Z,60.83
2019-02-28T03:48:46.671Z,59.13
2019-02-28T03:51:16.040Z,58.87
2019-02-28T03:53:47.934Z,60.25
2019-02-28T03:56:16.606Z,57.47
2019-02-28T03:58:46.028Z,56.35
2019-02-28T04:01:16.389Z,60.92
2019-02-28T04:03:46.208Z,58.80
2019-02-28T04:06:15.565Z,58.90
2019-02-28T04:08:44.959Z,57.88
2019-02-28T04:11:14.385Z,59.70
2019-02-28T04:13:43.909Z,57.65
2019-02-28T04:16:13.287Z,60.25
2019-02-28T04:18:46.161Z,59.40
2019-02-28T04:21:13.800Z,61.50
2019-02-28T04:23:43.177Z,61.15
2019-02-28T04:26:12.542Z,56.05
2019-02-28T04:28:43.454Z,59.23
2019-02-28T04:31:18.705Z,56.93
2019-02-28T04:33:44.093Z,60.27
2019-02-28T04:36:13.563Z,56.60
2019-02-28T04:38:44.468Z,54.42
2019-02-28T04:41:13.844Z,55.15
2019-02-28T04:43:44.367Z,56.98
2019-02-28T04:46:14.502Z,57.25
2019-02-28T04:48:45.689Z,58.42
2019-02-28T04:51:16.027Z,58.57
2019-02-28T04:53:45.378Z,58.30
2019-02-28T04:56:14.735Z,58.13
2019-02-28T04:58:44.105Z,61.58
2019-02-28T05:01:13.561Z,61.45
2019-02-28T05:03:42.988Z,57.38
2019-02-28T05:06:12.372Z,58.58
2019-02-28T05:08:41.903Z,60.25
2019-02-28T05:11:11.264Z,61.70
2019-02-28T05:13:41.213Z,64.00
2019-02-28T05:16:12.303Z,63.58
2019-02-28T05:18:41.735Z,65.20
2019-02-28T05:21:11.093Z,67.33
2019-02-28T05:23:40.477Z,66.95
2019-02-28T05:26:09.817Z,68.92
2019-02-28T05:28:41.234Z,64.87
2019-02-28T05:31:11.872Z,65.43
2019-02-28T05:33:41.907Z,65.85
2019-02-28T05:36:12.271Z,62.48
2019-02-28T05:38:41.699Z,64.22
2019-02-28T05:41:12.127Z,65.07
2019-02-28T05:43:42.571Z,65.20
2019-02-28T05:46:11.929Z,62.27
2019-02-28T05:48:41.310Z,62.00
2019-02-28T05:51:10.665Z,62.60
2019-02-28T05:53:41.267Z,62.40
2019-02-28T05:56:11.089Z,64.75
2019-02-28T05:58:40.448Z,61.35
2019-02-28T06:01:11.812Z,63.70
2019-02-28T06:03:40.913Z,63.73
2019-02-28T06:06:10.342Z,65.00
2019-02-28T06:08:40.043Z,62.70
2019-02-28T06:11:09.532Z,59.80
2019-02-28T06:13:38.880Z,61.42
2019-02-28T06:16:11.280Z,61.95
2019-02-28T06:18:39.330Z,60.38
2019-02-28T06:21:10.135Z,60.30
2019-02-28T06:23:40.794Z,59.43
2019-02-28T06:26:12.000Z,58.87
2019-02-28T06:28:41.388Z,61.28
2019-02-28T06:31:14.283Z,61.48
2019-02-28T06:33:42.901Z,60.43
2019-02-28T06:36:12.280Z,62.10
2019-02-28T06:38:41.704Z,61.48
2019-02-28T06:41:11.057Z,61.37
2019-02-28T06:43:40.445Z,62.53
2019-02-28T06:46:09.888Z,61.45
2019-02-28T06:48:39.347Z,60.25
2019-02-28T06:51:08.779Z,59.65
2019-02-28T06:53:39.382Z,63.60
2019-02-28T06:56:08.801Z,58.87
2019-02-28T06:58:38.164Z,61.88
2019-02-28T07:01:07.538Z,61.20
2019-02-28T07:03:38.818Z,61.92
2019-02-28T07:06:07.949Z,63.60
2019-02-28T07:08:37.476Z,64.00
2019-02-28T07:11:06.833Z,62.38
2019-02-28T07:13:38.777Z,64.25
2019-02-28T07:16:07.267Z,61.08
2019-02-28T07:18:36.681Z,64.65
2019-02-28T07:21:07.881Z,65.47
2019-02-28T07:23:37.105Z,65.12
2019-02-28T07:26:06.558Z,64.42
2019-02-28T07:28:37.379Z,62.67
2019-02-28T07:31:07.220Z,63.40
2019-02-28T07:33:36.613Z,62.15
2019-02-28T07:36:09.454Z,63.33
2019-02-28T07:38:37.049Z,61.70
2019-02-28T07:41:07.964Z,59.35
2019-02-28T07:43:37.819Z,62.90
2019-02-28T07:46:07.782Z,63.90
2019-02-28T07:48:38.217Z,63.63
2019-02-28T07:51:08.239Z,61.30
2019-02-28T07:53:40.896Z,62.30
2019-02-28T07:56:08.769Z,63.83
2019-02-28T07:58:38.230Z,62.40
2019-02-28T08:01:07.748Z,63.60
2019-02-28T08:03:37.190Z,61.53
2019-02-28T08:06:06.645Z,61.68
2019-02-28T08:08:36.255Z,59.63
2019-02-28T08:11:05.740Z,59.85
2019-02-28T08:13:37.856Z,61.95
2019-02-28T08:16:06.304Z,61.63
2019-02-28T08:18:38.551Z,63.90
2019-02-28T08:21:08.737Z,59.77
2019-02-28T08:23:39.094Z,63.27
2019-02-28T08:26:08.516Z,64.37
2019-02-28T08:28:38.231Z,62.95
2019-02-28T08:31:07.997Z,62.78
2019-02-28T08:33:37.432Z,63.85
2019-02-28T08:36:11.617Z,65.25
2019-02-28T08:38:38.969Z,64.80
2019-02-28T08:41:08.337Z,65.12
2019-02-28T08:43:37.704Z,63.42
2019-02-28T08:46:11.120Z,63.20
2019-02-28T08:48:38.228Z,67.97
2019-02-28T08:51:07.703Z,64.65
2019-02-28T08:53:37.099Z,67.17
2019-02-28T08:56:06.678Z,67.47
2019-02-28T08:58:37.652Z,67.75
2019-02-28T09:01:07.843Z,68.37
2019-02-28T09:03:37.230Z,68.20
2019-02-28T09:06:07.499Z,68.85
2019-02-28T09:08:37.028Z,69.75
2019-02-28T09:11:06.502Z,67.47
2019-02-28T09:13:35.911Z,67.45
2019-02-28T09:16:05.629Z,70.40
2019-02-28T09:18:35.057Z,69.30
2019-02-28T09:21:04.543Z,69.95
2019-02-28T09:23:34.419Z,70.35
2019-02-28T09:26:05.955Z,73.20
2019-02-28T09:28:35.323Z,70.62
2019-02-28T09:31:06.030Z,68.80
2019-02-28T09:33:35.641Z,72.15
2019-02-28T09:36:06.035Z,71.57
2019-02-28T09:38:35.458Z,71.22
2019-02-28T09:41:05.849Z,73.05
2019-02-28T09:43:35.263Z,73.62
2019-02-28T09:46:05.553Z,73.72
2019-02-28T09:48:37.216Z,73.37
2019-02-28T09:51:06.001Z,76.50
2019-02-28T09:53:35.441Z,74.22
2019-02-28T09:56:09.030Z,75.75
2019-02-28T09:58:36.730Z,73.40
2019-02-28T10:01:06.333Z,75.72
2019-02-28T10:03:35.694Z,76.75
2019-02-28T10:06:05.646Z,71.77
2019-02-28T10:08:36.628Z,74.22
2019-02-28T10:11:06.289Z,74.20
2019-02-28T10:13:35.745Z,78.00
2019-02-28T10:16:05.705Z,74.22
2019-02-28T10:18:35.513Z,73.80
2019-02-28T10:21:06.363Z,72.17
2019-02-28T10:23:35.745Z,70.90
2019-02-28T10:26:05.372Z,70.52
2019-02-28T10:28:34.772Z,71.22
2019-02-28T10:31:05.132Z,68.90
2019-02-28T10:33:34.494Z,68.70
2019-02-28T10:36:03.946Z,70.17
2019-02-28T10:38:33.922Z,67.17
2019-02-28T10:41:03.484Z,64.85
2019-02-28T10:43:32.928Z,64.47
2019-02-28T10:46:02.432Z,60.85
2019-02-28T10:48:31.856Z,58.48
2019-02-28T10:51:01.236Z,56.35
2019-02-28T10:53:30.757Z,54.95
2019-02-28T10:56:00.296Z,55.30
2019-02-28T10:58:29.748Z,54.00
2019-02-28T11:00:59.185Z,53.65
2019-02-28T11:03:32.259Z,52.48
2019-02-28T11:06:00.784Z,53.43
2019-02-28T11:08:30.145Z,51.10
2019-02-28T11:11:00.668Z,50.58
2019-02-28T11:13:31.942Z,51.53
2019-02-28T11:16:01.337Z,54.83
2019-02-28T11:18:30.869Z,57.20
2019-02-28T11:21:00.386Z,57.17
2019-02-28T11:23:29.856Z,57.25
2019-02-28T11:26:01.243Z,57.78
2019-02-28T11:28:31.054Z,62.95
2019-02-28T11:31:00.707Z,65.42
2019-02-28T11:33:30.225Z,67.42
2019-02-28T11:35:59.747Z,69.10
2019-02-28T11:38:29.235Z,76.02
2019-02-28T11:40:58.759Z,72.60
2019-02-28T11:43:28.383Z,71.95
2019-02-28T11:46:00.643Z,79.15
2019-02-28T11:48:29.173Z,77.37
2019-02-28T11:50:58.617Z,75.60
2019-02-28T11:53:28.117Z,74.95
2019-02-28T11:55:57.580Z,72.80
2019-02-28T11:58:27.036Z,76.42
2019-02-28T12:00:56.533Z,73.65
2019-02-28T12:03:25.978Z,73.85
2019-02-28T12:05:55.514Z,74.75
2019-02-28T12:08:25.015Z,71.40
2019-02-28T12:10:54.483Z,72.42
2019-02-28T12:13:23.940Z,67.85
2019-02-28T12:15:53.309Z,65.92
2019-02-28T12:18:22.854Z,64.00
2019-02-28T12:20:52.487Z,60.75
2019-02-28T12:23:24.338Z,57.57
2019-02-28T12:25:53.894Z,54.42
2019-02-28T12:28:23.497Z,52.93
2019-02-28T12:30:52.877Z,42.98
2019-02-28T12:33:23.362Z,44.45
2019-02-28T12:35:54.738Z,38.73
2019-02-28T12:38:25.975Z,33.53
2019-02-28T12:40:55.421Z,28.53
2019-02-28T12:43:24.775Z,26.60
2019-02-28T12:45:56.849Z,26.30
2019-02-28T12:48:27.029Z,22.93
2019-02-28T12:50:56.867Z,23.18
2019-02-28T12:53:26.248Z,22.80
2019-02-28T12:55:55.752Z,20.75
2019-02-28T12:58:25.165Z,19.20
2019-02-28T13:00:56.457Z,16.73
2019-02-28T13:03:25.622Z,13.03
2019-02-28T13:05:55.050Z,12.90
2019-02-28T13:08:24.573Z,12.25
2019-02-28T13:10:54.250Z,10.40
2019-02-28T13:13:27.473Z,10.08
2019-02-28T13:15:54.825Z,9.75
2019-02-28T13:18:25.331Z,8.70
2019-02-28T13:20:54.694Z,8.50
2019-02-28T13:23:24.135Z,8.28
2019-02-28T13:25:59.180Z,7.65
2019-02-28T13:28:24.563Z,7.17
2019-02-28T13:30:54.289Z,6.60
2019-02-28T13:33:23.682Z,6.83
2019-02-28T13:35:53.172Z,6.20
2019-02-28T13:38:22.773Z,5.35
2019-02-28T13:40:52.220Z,6.30
2019-02-28T13:43:22.842Z,6.28
2019-02-28T13:45:55.916Z,4.45
2019-02-28T13:48:26.525Z,5.67
2019-02-28T13:50:55.010Z,5.30
2019-02-28T13:53:30.531Z,5.80
2019-02-28T13:55:59.471Z,5.15
2019-02-28T13:58:28.844Z,6.35
2019-02-28T14:00:59.815Z,7.15
2019-02-28T14:03:29.259Z,9.15
2019-02-28T14:05:58.622Z,7.72
2019-02-28T14:08:28.043Z,8.78
2019-02-28T14:10:57.654Z,11.73
2019-02-28T14:13:30.058Z,11.15
2019-02-28T14:15:58.166Z,12.03
2019-02-28T14:18:27.614Z,12.60
2019-02-28T14:20:59.443Z,13.08
2019-02-28T14:23:28.121Z,11.10
2019-02-28T14:25:57.553Z,11.18
2019-02-28T14:28:27.064Z,11.75
2019-02-28T14:30:57.600Z,12.95
2019-02-28T14:33:27.640Z,12.83
2019-02-28T14:35:57.069Z,12.68
2019-02-28T14:38:29.596Z,11.80
2019-02-28T14:40:59.357Z,11.07
2019-02-28T14:43:28.871Z,12.90
2019-02-28T14:45:58.391Z,12.15
2019-02-28T14:48:27.737Z,12.13
2019-02-28T14:50:58.871Z,11.80
2019-02-28T14:53:28.448Z,11.85
2019-02-28T14:55:57.910Z,11.48
2019-02-28T14:58:27.394Z,11.18
2019-02-28T15:00:56.902Z,11.65
2019-02-28T15:03:26.340Z,10.10
2019-02-28T15:05:56.263Z,8.75
2019-02-28T15:08:28.617Z,8.98
2019-02-28T15:10:58.229Z,8.60
2019-02-28T15:13:30.383Z,6.45
2019-02-28T15:15:58.893Z,6.20
2019-02-28T15:18:28.644Z,5.50
2019-02-28T15:20:57.990Z,6.12
2019-02-28T15:23:30.903Z,5.28
2019-02-28T15:26:00.113Z,5.40
2019-02-28T15:28:29.585Z,5.50
2019-02-28T15:30:59.010Z,6.17
2019-02-28T15:33:30.573Z,5.85
2019-02-28T15:35:59.501Z,5.40
2019-02-28T15:38:28.948Z,5.45
2019-02-28T15:40:58.791Z,5.08
2019-02-28T15:43:28.969Z,6.00
2019-02-28T15:45:58.323Z,8.75
2019-02-28T15:48:27.701Z,9.15
2019-02-28T15:50:58.602Z,6.12
2019-02-28T15:53:28.090Z,7.57
2019-02-28T15:58:49.433Z,5.45
2019-02-28T16:01:17.433Z,5.95
2019-02-28T16:03:48.419Z,5.55
2019-02-28T16:06:19.772Z,6.33
2019-02-28T16:08:49.072Z,5.23
2019-02-28T16:11:18.506Z,5.37
2019-02-28T16:13:47.881Z,5.72
2019-02-28T16:16:17.329Z,5.58
2019-02-28T16:18:47.294Z,5.15
2019-02-28T16:21:17.419Z,5.85
2019-02-28T16:23:46.862Z,6.35
2019-02-28T16:26:18.290Z,6.10
2019-02-28T16:28:47.375Z,7.47
2019-02-28T16:31:18.690Z,5.85
2019-02-28T16:33:47.870Z,6.40
2019-02-28T16:36:17.263Z,5.83
2019-02-28T16:38:46.690Z,6.80
2019-02-28T16:41:16.084Z,7.15
2019-02-28T16:43:45.579Z,7.92
2019-02-28T16:46:15.615Z,7.85
2019-02-28T16:48:45.673Z,8.45
2019-02-28T16:51:15.083Z,9.03
2019-02-28T16:53:47.990Z,9.13
2019-02-28T16:56:16.070Z,10.27
2019-02-28T16:58:45.548Z,9.40
2019-02-28T17:01:17.594Z,10.13
2019-02-28T17:03:46.228Z,13.23
2019-02-28T17:06:15.960Z,13.38
2019-02-28T17:08:46.996Z,15.03
2019-02-28T17:11:18.182Z,16.13
2019-02-28T17:13:50.106Z,16.97
2019-02-28T17:16:21.106Z,16.87
2019-02-28T17:18:53.490Z,16.80
2019-02-28T17:21:21.807Z,18.87
2019-02-28T17:23:52.511Z,18.33
2019-02-28T17:26:23.608Z,18.95
2019-02-28T17:29:03.545Z,19.87
2019-02-28T17:31:40.315Z,20.30
2019-02-28T17:34:10.350Z,21.55
2019-02-28T17:36:39.807Z,23.05
2019-02-28T17:39:11.400Z,25.40
2019-02-28T17:41:41.656Z,31.35
2019-02-28T17:44:26.248Z,30.70
2019-02-28T17:47:11.700Z,34.75
2019-02-28T17:50:05.877Z,38.58
2019-02-28T17:53:03.182Z,37.58
2019-02-28T17:55:44.479Z,41.63
2019-02-28T18:01:42.522Z,23.12
2019-02-28T18:04:35.845Z,16.75
2019-02-28T18:07:23.667Z,14.58
2019-02-28T18:09:55.179Z,12.68
2019-02-28T18:12:53.672Z,11.22
2019-02-28T18:15:48.300Z,9.93
2019-02-28T18:18:46.217Z,9.70
2019-02-28T18:21:24.538Z,10.35
2019-02-28T18:24:03.752Z,9.60
2019-02-28T18:26:52.612Z,9.78
2019-02-28T18:29:31.161Z,11.18
2019-02-28T18:32:00.435Z,11.05
2019-02-28T18:34:30.246Z,11.20
2019-02-28T18:37:00.286Z,13.28
2019-02-28T18:39:29.761Z,12.63
2019-02-28T18:41:59.215Z,13.15
2019-02-28T18:44:33.050Z,12.60
2019-02-28T18:47:07.444Z,13.32
2019-02-28T18:49:37.149Z,12.25
2019-02-28T18:52:08.284Z,12.10
2019-02-28T18:54:40.987Z,13.53
2019-02-28T18:57:18.268Z,12.97
2019-02-28T18:59:47.955Z,14.83
2019-02-28T19:02:19.022Z,15.88
2019-02-28T19:04:48.521Z,18.10
2019-02-28T19:07:18.152Z,17.20
2019-02-28T19:09:47.563Z,18.82
2019-02-28T19:12:17.109Z,18.57
2019-02-28T19:14:46.664Z,18.10
2019-02-28T19:17:17.610Z,18.07
2019-02-28T19:19:47.208Z,18.50
2019-02-28T19:22:17.288Z,17.60
2019-02-28T19:24:46.644Z,17.25
2019-02-28T19:27:16.139Z,17.25
2019-02-28T19:29:46.032Z,17.02
2019-02-28T19:32:16.252Z,15.70
2019-02-28T19:34:45.929Z,14.83
2019-02-28T19:37:15.525Z,15.38
2019-02-28T19:39:44.954Z,14.78
2019-02-28T19:42:15.605Z,15.23
2019-02-28T19:44:45.137Z,14.50
2019-02-28T19:47:14.617Z,15.05
2019-02-28T19:49:44.908Z,14.68
2019-02-28T19:52:14.408Z,14.60
2019-02-28T19:54:43.794Z,12.75
2019-02-28T19:57:13.470Z,13.15
2019-02-28T19:59:42.942Z,14.07
2019-02-28T20:02:12.327Z,13.90
2019-02-28T20:04:41.829Z,12.43
2019-02-28T20:07:11.218Z,13.15
2019-02-28T20:09:40.660Z,13.08
2019-02-28T20:12:10.718Z,11.80
2019-02-28T20:14:40.413Z,13.15
2019-02-28T20:17:09.846Z,13.05
2019-02-28T20:19:39.299Z,13.32
2019-02-28T20:22:08.796Z,12.50
2019-02-28T20:24:38.316Z,14.53
2019-02-28T20:27:08.984Z,14.83
2019-02-28T20:29:38.466Z,15.57
2019-02-28T20:32:07.937Z,14.50
2019-02-28T20:34:37.386Z,15.13
2019-02-28T20:37:06.961Z,14.40
2019-02-28T20:39:36.475Z,15.63
2019-02-28T20:42:06.335Z,16.42
2019-02-28T20:44:35.787Z,15.85
2019-02-28T20:47:05.616Z,16.45
2019-02-28T20:49:34.984Z,18.00
2019-02-28T20:52:04.569Z,16.90
2019-02-28T20:54:35.148Z,18.43
2019-02-28T20:57:07.269Z,17.92
2019-02-28T20:59:37.821Z,19.10
2019-02-28T21:02:07.582Z,19.32
2019-02-28T21:04:37.218Z,19.20
2019-02-28T21:07:06.646Z,20.32
2019-02-28T21:09:44.893Z,20.72
2019-02-28T21:12:12.439Z,20.88
2019-02-28T21:14:42.080Z,20.57
2019-02-28T21:17:13.170Z,21.55
2019-02-28T21:19:44.262Z,21.77
2019-02-28T21:22:13.826Z,23.27
2019-02-28T21:24:45.503Z,22.60
2019-02-28T21:27:14.955Z,22.05
2019-02-28T21:29:44.557Z,21.90
2019-02-28T21:32:14.087Z,21.35
2019-02-28T21:34:43.726Z,22.20
2019-02-28T21:37:13.274Z,20.62
2019-02-28T21:39:44.827Z,21.77
2019-02-28T21:42:15.906Z,20.90
2019-02-28T21:44:45.464Z,20.88
2019-02-28T21:47:14.912Z,20.77
2019-02-28T21:49:44.340Z,22.93
2019-02-28T21:52:13.867Z,19.60
2019-02-28T21:54:43.269Z,20.27
2019-02-28T21:57:15.507Z,20.80
2019-02-28T21:59:44.882Z,21.52
2019-02-28T22:02:14.321Z,22.42
2019-02-28T22:04:43.924Z,22.13
2019-02-28T22:07:14.985Z,22.70
2019-02-28T22:09:44.354Z,21.02
2019-02-28T22:12:14.564Z,20.80
2019-02-28T22:14:44.122Z,21.97
2019-02-28T22:17:15.177Z,22.07
2019-02-28T22:19:46.094Z,21.37
2019-02-28T22:22:15.452Z,22.58
2019-02-28T22:24:44.806Z,22.40
2019-02-28T22:27:14.267Z,22.37
2019-02-28T22:29:43.705Z,21.60
2019-02-28T22:32:23.961Z,21.27
2019-02-28T22:34:47.439Z,21.45
2019-02-28T22:37:17.800Z,21.37
2019-02-28T22:39:47.156Z,20.02
2019-02-28T22:42:22.134Z,22.20
2019-02-28T22:44:48.765Z,22.55
2019-02-28T22:47:18.139Z,21.37
2019-02-28T22:49:48.628Z,21.80
2019-02-28T22:52:18.044Z,21.75
2019-02-28T22:54:47.435Z,23.83
2019-02-28T22:57:16.878Z,22.53
2019-02-28T22:59:46.342Z,23.07
2019-02-28T23:02:15.916Z,22.10
2019-02-28T23:04:45.327Z,22.50
2019-02-28T23:07:16.845Z,21.30
2019-02-28T23:09:47.344Z,22.05
2019-02-28T23:12:16.714Z,22.70
2019-02-28T23:14:48.478Z,21.90
2019-02-28T23:19:46.752Z,20.80
2019-02-28T23:22:16.902Z,22.62
2019-02-28T23:24:49.419Z,22.13
2019-02-28T23:27:18.895Z,22.07
2019-02-28T23:29:51.359Z,23.15
2019-02-28T23:32:42.073Z,22.00
2019-02-28T23:35:14.591Z,22.83
2019-02-28T23:37:44.007Z,22.98
2019-02-28T23:40:13.353Z,21.70
2019-02-28T23:42:42.794Z,20.37
2019-02-28T23:45:12.223Z,20.80
2019-02-28T23:47:41.600Z,20.05
2019-02-28T23:50:11.040Z,22.00
2019-02-28T23:52:41.533Z,20.97
2019-02-28T23:55:12.110Z,19.95
2019-02-28T23:57:41.488Z,22.82
